METAR de aeropuertos de Murcia y cercanos

 

LEAL - Alicante
Actualización: 13/12/2017 19:30
Despejado
Despejado
 Viento del SSO
Viento: SSO 7 km/h
Temperatura: 10°C
Wind Chill: 9°C
Rocío: 0°C
Humedad: 50%
Barómetro: 1025 hPa
Resumen: Despejado
Visibilidad: greater than 10 km
2017/12/13 18:30 LEAL 131830Z 21004KT 160V250 CAVOK 10/00 Q1025 NOSIG
LEAB - Albacete
Actualización: 13/12/2017 19:00
Despejado
Despejado
 Viento del varies
Viento: varies 2 km/h
Temperatura: 4°C
Rocío: 0°C
Humedad: 75%
Barómetro: 1026 hPa
Resumen: Despejado
Visibilidad: greater than 10 km
2017/12/13 18:00 LEAB 131800Z VRB01KT CAVOK 04/M00 Q1026 NOSIG
LEAM - Almería
Actualización: 13/12/2017 19:30
Despejado
Despejado
 Viento del OSO
Viento: OSO 11 km/h
Temperatura: 13°C
Rocío: 8°C
Humedad: 72%
Barómetro: 1026 hPa
Resumen: Despejado
Visibilidad: greater than 10 km
2017/12/13 18:30 LEAM 131830Z 24006KT CAVOK 13/08 Q1026
 
LERI - Murcia/Alcantarilla
Actualización: 13/12/2017 19:00
Despejado
Despejado
 Viento del SO
Viento: SO 9 km/h
Temperatura: 11°C
Rocío: 2°C
Humedad: 54%
Barómetro: 1025 hPa
Resumen: Despejado
Visibilidad: greater than 10 km
2017/12/13 18:00 LERI 131800Z 23005KT CAVOK 11/02 Q1025 NOSIG
LELC - Murcia/San Javier
Actualización: 13/12/2017 19:00
Despejado
Despejado
 Viento del ONO
Viento: ONO 9 km/h
Temperatura: 10°C
Wind Chill: 9°C
Rocío: 4°C
Humedad: 67%
Barómetro: 1026 hPa
Resumen: Despejado
Visibilidad: greater than 10 km
2017/12/13 18:00 LELC 131800Z 29005KT CAVOK 10/04 Q1026 NOSIG

La estación de MeteoMurcia.com, publica sus datos en los siguientes proyectos:

Meteoclimatic www.awekas.at

W3Counter
Web Analytics